createdAt,value
2017-02-05T00:00:50.660Z,21.07
2017-02-05T00:02:05.003Z,21.06
2017-02-05T00:03:18.727Z,20.99
2017-02-05T00:04:33.061Z,21.01
2017-02-05T00:05:47.448Z,20.94
2017-02-05T00:07:01.818Z,20.95
2017-02-05T00:08:15.523Z,21.04
2017-02-05T00:09:29.898Z,21.03
2017-02-05T00:10:44.216Z,21.04
2017-02-05T00:11:58.584Z,20.99
2017-02-05T00:13:12.959Z,21.04
2017-02-05T00:14:27.317Z,21.07
2017-02-05T00:15:41.024Z,20.95
2017-02-05T00:16:55.381Z,20.94
2017-02-05T00:18:09.742Z,20.92
2017-02-05T00:19:24.126Z,20.92
2017-02-05T00:20:37.871Z,20.91
2017-02-05T00:21:52.219Z,20.97
2017-02-05T00:23:06.566Z,20.94
2017-02-05T00:24:20.925Z,21.01
2017-02-05T00:25:34.038Z,20.98
2017-02-05T00:26:48.453Z,21.1
2017-02-05T00:28:02.843Z,21.06
2017-02-05T00:29:16.564Z,21.03
2017-02-05T00:30:30.944Z,21.03
2017-02-05T00:31:45.319Z,21.06
2017-02-05T00:32:59.723Z,21.17
2017-02-05T00:34:14.116Z,21.14
2017-02-05T00:35:28.496Z,21.14
2017-02-05T00:36:42.889Z,21.14
2017-02-05T00:37:57.246Z,21.17
2017-02-05T00:39:10.994Z,21.12
2017-02-05T00:40:25.337Z,21.04
2017-02-05T00:41:39.040Z,21.06
2017-02-05T00:42:53.388Z,20.99
2017-02-05T00:44:07.067Z,21.07
2017-02-05T00:45:21.406Z,21.04
2017-02-05T00:46:33.886Z,20.98
2017-02-05T00:47:48.264Z,21.04
2017-02-05T00:49:02.611Z,20.99
2017-02-05T00:50:17.006Z,21.07
2017-02-05T00:51:31.337Z,21.03
2017-02-05T00:52:45.675Z,21.12
2017-02-05T00:54:00.080Z,21.14
2017-02-05T00:55:14.446Z,21.14
2017-02-05T00:56:28.787Z,21.22
2017-02-05T00:57:43.152Z,21.38
2017-02-05T00:58:57.492Z,21.34
2017-02-05T01:00:11.220Z,21.53
2017-02-05T01:01:25.567Z,21.49
2017-02-05T01:02:39.926Z,21.56
2017-02-05T01:03:54.326Z,21.49
2017-02-05T01:05:08.716Z,21.49
2017-02-05T01:06:23.094Z,21.49
2017-02-05T01:07:37.460Z,21.37
2017-02-05T01:08:52.026Z,21.38
2017-02-05T01:10:06.727Z,21.43
2017-02-05T01:11:21.117Z,21.47
2017-02-05T01:12:35.464Z,21.5
2017-02-05T01:13:49.862Z,21.5
2017-02-05T01:15:04.209Z,21.49
2017-02-05T01:16:17.956Z,21.4
2017-02-05T01:17:31.676Z,21.35
2017-02-05T01:18:46.018Z,21.35
2017-02-05T01:20:00.416Z,21.38
2017-02-05T01:21:14.773Z,21.32
2017-02-05T01:22:29.138Z,21.34
2017-02-05T01:23:42.872Z,21.22
2017-02-05T01:24:57.238Z,21.32
2017-02-05T01:26:11.604Z,21.27
2017-02-05T01:27:25.970Z,21.24
2017-02-05T01:28:40.372Z,21.27
2017-02-05T01:29:54.744Z,21.14
2017-02-05T01:31:09.115Z,21.09
2017-02-05T01:32:23.433Z,21.17
2017-02-05T01:33:37.827Z,21.1
2017-02-05T01:34:52.386Z,21.1
2017-02-05T01:36:06.786Z,21.1
2017-02-05T01:37:21.156Z,20.97
2017-02-05T01:38:35.512Z,20.98
2017-02-05T01:39:49.893Z,20.97
2017-02-05T01:41:04.269Z,21.07
2017-02-05T01:42:17.333Z,21.14
2017-02-05T01:43:31.708Z,21.1
2017-02-05T01:44:46.102Z,21.1
2017-02-05T01:46:00.498Z,21.06
2017-02-05T01:47:14.850Z,21.12
2017-02-05T01:48:29.240Z,21.04
2017-02-05T01:49:42.986Z,20.97
2017-02-05T01:50:57.313Z,21.01
2017-02-05T01:52:11.026Z,20.99
2017-02-05T01:53:25.463Z,21.03
2017-02-05T01:54:38.567Z,21.04
2017-02-05T01:55:52.922Z,20.95
2017-02-05T01:57:06.633Z,20.94
2017-02-05T01:58:20.364Z,20.95
2017-02-05T01:59:34.925Z,20.88
2017-02-05T02:00:48.641Z,20.89
2017-02-05T02:02:03.021Z,20.92
2017-02-05T02:03:16.074Z,20.91
2017-02-05T02:04:29.837Z,20.91
2017-02-05T02:05:44.224Z,20.92
2017-02-05T02:06:58.600Z,20.88
2017-02-05T02:08:12.347Z,20.84
2017-02-05T02:09:26.731Z,20.84
2017-02-05T02:10:41.111Z,20.82
2017-02-05T02:11:55.493Z,20.85
2017-02-05T02:13:09.826Z,20.95
2017-02-05T02:14:24.210Z,20.92
2017-02-05T02:15:37.931Z,20.94
2017-02-05T02:16:52.265Z,20.89
2017-02-05T02:18:06.652Z,20.92
2017-02-05T02:19:21.047Z,20.85
2017-02-05T02:20:35.430Z,20.91
2017-02-05T02:21:49.159Z,20.88
2017-02-05T02:23:03.531Z,20.88
2017-02-05T02:24:17.879Z,20.95
2017-02-05T02:25:32.241Z,21.04
2017-02-05T02:26:46.605Z,21.07
2017-02-05T02:28:00.968Z,21.01
2017-02-05T02:29:15.369Z,21.03
2017-02-05T02:30:29.783Z,20.98
2017-02-05T02:31:44.159Z,20.98
2017-02-05T02:32:58.520Z,21.01
2017-02-05T02:34:12.868Z,21.07
2017-02-05T02:35:27.214Z,21.06
2017-02-05T02:36:41.587Z,21.1
2017-02-05T02:37:55.320Z,21.12
2017-02-05T02:39:09.681Z,21.1
2017-02-05T02:40:24.020Z,21.17
2017-02-05T02:41:37.743Z,21.1
2017-02-05T02:42:52.141Z,21.13
2017-02-05T02:44:06.477Z,20.99
2017-02-05T02:45:20.863Z,20.97
2017-02-05T02:46:34.630Z,21.03
2017-02-05T02:47:48.990Z,20.94
2017-02-05T02:49:03.338Z,20.91
2017-02-05T02:50:17.689Z,20.88
2017-02-05T02:51:32.057Z,20.89
2017-02-05T02:52:46.450Z,20.91
2017-02-05T02:54:00.816Z,20.89
2017-02-05T02:55:15.157Z,20.95
2017-02-05T02:56:29.535Z,20.91
2017-02-05T02:57:43.903Z,20.89
2017-02-05T02:58:58.287Z,20.91
2017-02-05T03:00:12.661Z,20.87
2017-02-05T03:01:26.372Z,20.82
2017-02-05T03:02:39.429Z,20.8
2017-02-05T03:03:53.779Z,20.79
2017-02-05T03:05:08.181Z,20.62
2017-02-05T03:06:22.000Z,20.67
2017-02-05T03:07:36.357Z,20.66
2017-02-05T03:08:50.682Z,20.66
2017-02-05T03:10:05.080Z,20.66
2017-02-05T03:11:19.438Z,20.62
2017-02-05T03:12:33.217Z,20.59
2017-02-05T03:13:47.578Z,20.61
2017-02-05T03:15:01.935Z,20.69
2017-02-05T03:16:16.283Z,20.77
2017-02-05T03:17:30.658Z,20.73
2017-02-05T03:18:45.031Z,20.79
2017-02-05T03:19:59.417Z,20.72
2017-02-05T03:21:13.173Z,20.72
2017-02-05T03:22:27.561Z,20.69
2017-02-05T03:23:41.912Z,20.67
2017-02-05T03:24:56.299Z,20.66
2017-02-05T03:26:10.684Z,20.7
2017-02-05T03:27:25.170Z,20.69
2017-02-05T03:28:39.543Z,20.72
2017-02-05T03:29:53.950Z,20.62
2017-02-05T03:31:08.303Z,20.73
2017-02-05T03:32:21.995Z,20.66
2017-02-05T03:33:36.362Z,20.69
2017-02-05T03:34:50.778Z,20.64
2017-02-05T03:36:05.217Z,20.61
2017-02-05T03:37:19.610Z,20.61
2017-02-05T03:38:34.002Z,20.57
2017-02-05T03:39:48.418Z,20.55
2017-02-05T03:41:02.793Z,20.55
2017-02-05T03:42:17.170Z,20.48
2017-02-05T03:43:31.521Z,20.47
2017-02-05T03:44:45.277Z,20.57
2017-02-05T03:45:59.021Z,20.43
2017-02-05T03:47:13.487Z,20.5
2017-02-05T03:48:27.822Z,20.47
2017-02-05T03:49:42.217Z,20.5
2017-02-05T03:50:56.581Z,20.47
2017-02-05T03:52:10.325Z,20.59
2017-02-05T03:53:24.029Z,20.58
2017-02-05T03:54:37.757Z,20.62
2017-02-05T03:55:52.114Z,20.61
2017-02-05T03:57:06.453Z,20.55
2017-02-05T03:58:20.800Z,20.5
2017-02-05T03:59:35.151Z,20.55
2017-02-05T04:00:49.534Z,20.51
2017-02-05T04:02:03.914Z,20.59
2017-02-05T04:03:17.690Z,20.51
2017-02-05T04:04:32.045Z,20.67
2017-02-05T04:05:45.772Z,20.58
2017-02-05T04:07:00.120Z,20.59
2017-02-05T04:08:14.703Z,20.59
2017-02-05T04:09:29.066Z,20.51
2017-02-05T04:10:43.406Z,20.5
2017-02-05T04:11:57.783Z,20.39
2017-02-05T04:13:11.485Z,20.31
2017-02-05T04:14:25.846Z,20.23
2017-02-05T04:15:40.210Z,20.32
2017-02-05T04:16:54.604Z,20.33
2017-02-05T04:18:07.674Z,20.32
2017-02-05T04:19:22.045Z,20.36
2017-02-05T04:20:36.420Z,20.43
2017-02-05T04:21:50.122Z,20.41
2017-02-05T04:23:04.492Z,20.39
2017-02-05T04:24:18.245Z,20.29
2017-02-05T04:25:32.624Z,20.24
2017-02-05T04:26:47.004Z,20.24
2017-02-05T04:28:01.342Z,20.26
2017-02-05T04:29:16.063Z,20.17
2017-02-05T04:30:30.432Z,20.17
2017-02-05T04:31:44.147Z,20.11
2017-02-05T04:32:58.504Z,20.24
2017-02-05T04:34:12.217Z,20.1
2017-02-05T04:35:26.626Z,20.11
2017-02-05T04:36:40.978Z,20.1
2017-02-05T04:37:55.396Z,20.13
2017-02-05T04:39:09.726Z,20.05
2017-02-05T04:40:24.114Z,20.06
2017-02-05T04:41:38.488Z,20.17
2017-02-05T04:42:52.863Z,20.14
2017-02-05T04:44:07.229Z,20.11
2017-02-05T04:45:20.947Z,20.2
2017-02-05T04:46:34.667Z,20.16
2017-02-05T04:47:49.035Z,20.2
2017-02-05T04:49:03.405Z,20.08
2017-02-05T04:50:17.803Z,20.28
2017-02-05T04:51:32.158Z,20.16
2017-02-05T04:52:46.498Z,20.23
2017-02-05T04:54:00.841Z,20.24
2017-02-05T04:55:15.183Z,20.36
2017-02-05T04:56:29.536Z,20.42
2017-02-05T04:57:43.920Z,20.29
2017-02-05T04:58:58.301Z,20.47
2017-02-05T05:00:12.047Z,20.43
2017-02-05T05:01:26.448Z,20.36
2017-02-05T05:02:40.822Z,20.41
2017-02-05T05:03:55.191Z,20.31
2017-02-05T05:05:08.911Z,20.26
2017-02-05T05:06:23.294Z,20.29
2017-02-05T05:07:37.655Z,20.31
2017-02-05T05:08:52.051Z,20.33
2017-02-05T05:10:05.769Z,20.31
2017-02-05T05:11:19.455Z,20.26
2017-02-05T05:12:33.840Z,20.35
2017-02-05T05:13:48.177Z,20.32
2017-02-05T05:15:02.588Z,20.28
2017-02-05T05:16:16.341Z,20.26
2017-02-05T05:17:30.672Z,20.31
2017-02-05T05:18:45.056Z,20.28
2017-02-05T05:19:59.434Z,20.23
2017-02-05T05:21:13.138Z,20.29
2017-02-05T05:22:27.490Z,20.23
2017-02-05T05:23:41.848Z,20.1
2017-02-05T05:24:56.200Z,20.16
2017-02-05T05:26:09.901Z,20.16
2017-02-05T05:27:24.308Z,20.08
2017-02-05T05:28:38.657Z,20.11
2017-02-05T05:29:53.063Z,20.18
2017-02-05T05:31:07.403Z,20.1
2017-02-05T05:32:21.780Z,20.13
2017-02-05T05:33:36.171Z,20.08
2017-02-05T05:34:50.543Z,19.95
2017-02-05T05:36:04.899Z,20.06
2017-02-05T05:37:17.980Z,19.98
2017-02-05T05:38:32.365Z,19.84
2017-02-05T05:39:46.729Z,19.86
2017-02-05T05:41:01.087Z,19.95
2017-02-05T05:42:15.421Z,19.98
2017-02-05T05:43:29.789Z,19.92
2017-02-05T05:44:44.173Z,19.95
2017-02-05T05:45:58.563Z,19.92
2017-02-05T05:47:12.941Z,19.88
2017-02-05T05:48:27.291Z,19.91
2017-02-05T05:49:40.997Z,19.83
2017-02-05T05:50:55.382Z,19.91
2017-02-05T05:52:09.104Z,19.87
2017-02-05T05:53:23.464Z,19.81
2017-02-05T05:54:37.846Z,19.88
2017-02-05T05:55:52.214Z,19.86
2017-02-05T05:57:06.574Z,19.87
2017-02-05T05:58:20.959Z,19.86
2017-02-05T05:59:35.333Z,19.88
2017-02-05T06:00:49.670Z,19.94
2017-02-05T06:02:04.077Z,19.86
2017-02-05T06:03:18.433Z,19.91
2017-02-05T06:04:32.827Z,19.87
2017-02-05T06:05:46.517Z,19.83
2017-02-05T06:07:00.849Z,19.87
2017-02-05T06:08:15.237Z,19.84
2017-02-05T06:09:29.585Z,19.81
2017-02-05T06:10:43.971Z,19.83
2017-02-05T06:11:58.362Z,19.84
2017-02-05T06:13:12.120Z,19.84
2017-02-05T06:14:26.719Z,19.94
2017-02-05T06:15:40.741Z,19.84
2017-02-05T06:16:55.108Z,19.88
2017-02-05T06:18:09.471Z,19.8
2017-02-05T06:19:23.861Z,19.78
2017-02-05T06:20:38.241Z,19.73
2017-02-05T06:21:52.609Z,19.78
2017-02-05T06:23:06.975Z,19.76
2017-02-05T06:24:20.685Z,19.71
2017-02-05T06:25:35.081Z,19.69
2017-02-05T06:26:49.453Z,19.69
2017-02-05T06:28:03.833Z,19.74
2017-02-05T06:29:17.595Z,19.73
2017-02-05T06:30:31.981Z,19.71
2017-02-05T06:31:46.303Z,19.65
2017-02-05T06:33:00.677Z,19.62
2017-02-05T06:34:15.056Z,19.68
2017-02-05T06:35:29.430Z,19.69
2017-02-05T06:36:43.803Z,19.68
2017-02-05T06:37:57.587Z,19.77
2017-02-05T06:39:11.946Z,19.71
2017-02-05T06:40:26.354Z,19.77
2017-02-05T06:41:40.065Z,19.78
2017-02-05T06:42:54.462Z,19.71
2017-02-05T06:44:08.849Z,19.78
2017-02-05T06:45:22.561Z,19.74
2017-02-05T06:46:36.911Z,19.8
2017-02-05T06:47:51.259Z,19.76
2017-02-05T06:49:05.627Z,19.68
2017-02-05T06:50:20.031Z,19.63
2017-02-05T06:51:34.439Z,19.59
2017-02-05T06:52:48.790Z,19.62
2017-02-05T06:54:03.157Z,19.62
2017-02-05T06:55:17.509Z,19.61
2017-02-05T06:56:31.903Z,19.68
2017-02-05T06:57:46.308Z,19.65
2017-02-05T06:59:00.689Z,19.61
2017-02-05T07:00:13.744Z,19.66
2017-02-05T07:01:28.094Z,19.63
2017-02-05T07:02:41.810Z,19.59
2017-02-05T07:03:56.138Z,19.66
2017-02-05T07:05:10.553Z,19.62
2017-02-05T07:06:24.908Z,19.71
2017-02-05T07:07:39.265Z,19.74
2017-02-05T07:08:53.627Z,19.74
2017-02-05T07:10:07.953Z,19.77
2017-02-05T07:11:21.691Z,19.76
2017-02-05T07:12:36.076Z,19.76
2017-02-05T07:13:50.461Z,19.84
2017-02-05T07:15:04.799Z,19.77
2017-02-05T07:16:19.164Z,19.78
2017-02-05T07:17:33.520Z,19.74
2017-02-05T07:18:47.931Z,19.73
2017-02-05T07:20:02.333Z,19.76
2017-02-05T07:21:16.715Z,19.66
2017-02-05T07:22:30.470Z,19.69
2017-02-05T07:23:44.791Z,19.65
2017-02-05T07:24:59.123Z,19.56
2017-02-05T07:26:12.881Z,19.63
2017-02-05T07:27:27.255Z,19.63
2017-02-05T07:28:41.600Z,19.63
2017-02-05T07:29:55.941Z,19.59
2017-02-05T07:31:10.273Z,19.58
2017-02-05T07:32:23.983Z,19.63
2017-02-05T07:33:37.931Z,19.66
2017-02-05T07:34:52.305Z,19.62
2017-02-05T07:36:06.679Z,19.66
2017-02-05T07:37:21.035Z,19.56
2017-02-05T07:38:35.376Z,19.56
2017-02-05T07:39:49.745Z,19.58
2017-02-05T07:41:04.132Z,19.59
2017-02-05T07:42:18.510Z,19.51
2017-02-05T07:43:32.913Z,19.46
2017-02-05T07:44:47.267Z,19.56
2017-02-05T07:46:01.606Z,19.56
2017-02-05T07:47:15.300Z,19.61
2017-02-05T07:48:29.044Z,19.58
2017-02-05T07:49:42.765Z,19.58
2017-02-05T07:50:57.129Z,19.54
2017-02-05T07:52:11.497Z,19.56
2017-02-05T07:53:25.900Z,19.54
2017-02-05T07:54:40.269Z,19.61
2017-02-05T07:55:54.628Z,19.58
2017-02-05T07:57:09.004Z,19.66
2017-02-05T07:58:23.407Z,19.61
2017-02-05T07:59:37.762Z,19.58
2017-02-05T08:00:52.292Z,19.55
2017-02-05T08:02:06.653Z,19.56
2017-02-05T08:03:21.036Z,19.62
2017-02-05T08:04:35.416Z,19.63
2017-02-05T08:05:49.792Z,19.69
2017-02-05T08:07:03.528Z,19.65
2017-02-05T08:08:17.267Z,19.66
2017-02-05T08:09:31.663Z,19.69
2017-02-05T08:10:46.057Z,19.68
2017-02-05T08:12:00.455Z,19.74
2017-02-05T08:13:14.864Z,19.66
2017-02-05T08:14:29.210Z,19.68
2017-02-05T08:15:43.582Z,19.68
2017-02-05T08:16:57.956Z,19.65
2017-02-05T08:18:11.017Z,19.65
2017-02-05T08:19:25.429Z,19.71
2017-02-05T08:20:39.794Z,19.65
2017-02-05T08:21:54.121Z,19.69
2017-02-05T08:23:08.540Z,19.65
2017-02-05T08:24:20.989Z,19.59
2017-02-05T08:25:35.412Z,19.61
2017-02-05T08:26:49.829Z,19.55
2017-02-05T08:28:04.194Z,19.61
2017-02-05T08:29:17.915Z,19.51
2017-02-05T08:30:32.292Z,19.59
2017-02-05T08:31:46.618Z,19.56
2017-02-05T08:33:00.994Z,19.55
2017-02-05T08:34:15.405Z,19.51
2017-02-05T08:35:29.796Z,19.46
2017-02-05T08:36:44.132Z,19.39
2017-02-05T08:37:58.543Z,19.47
2017-02-05T08:39:12.306Z,19.4
2017-02-05T08:40:26.012Z,19.54
2017-02-05T08:41:40.430Z,19.41
2017-02-05T08:42:54.779Z,19.37
2017-02-05T08:44:09.126Z,19.41
2017-02-05T08:45:23.455Z,19.4
2017-02-05T08:46:37.204Z,19.32
2017-02-05T08:47:51.557Z,19.36
2017-02-05T08:49:05.916Z,19.33
2017-02-05T08:50:20.276Z,19.41
2017-02-05T08:51:34.652Z,19.41
2017-02-05T08:52:48.590Z,19.41
2017-02-05T08:54:03.018Z,19.37
2017-02-05T08:55:16.736Z,19.44
2017-02-05T08:56:30.471Z,19.43
2017-02-05T08:57:44.816Z,19.46
2017-02-05T08:58:59.219Z,19.58
2017-02-05T09:00:12.934Z,19.69
2017-02-05T09:01:27.292Z,19.76
2017-02-05T09:02:41.674Z,19.87
2017-02-05T09:03:56.053Z,19.95
2017-02-05T09:05:10.421Z,19.98
2017-02-05T09:06:24.794Z,20.17
2017-02-05T09:07:38.557Z,20.24
2017-02-05T09:08:52.890Z,20.29
2017-02-05T09:10:07.249Z,20.5
2017-02-05T09:11:21.627Z,20.52
2017-02-05T09:12:35.991Z,20.7
2017-02-05T09:13:50.366Z,20.77
2017-02-05T09:15:04.728Z,20.97
2017-02-05T09:16:17.809Z,21.09
2017-02-05T09:17:32.210Z,21.29
2017-02-05T09:18:45.955Z,21.34
2017-02-05T09:20:00.345Z,21.52
2017-02-05T09:21:14.725Z,21.68
2017-02-05T09:22:29.143Z,21.86
2017-02-05T09:23:43.523Z,22.07
2017-02-05T09:24:57.898Z,22.12
2017-02-05T09:26:12.237Z,22.33
2017-02-05T09:27:26.595Z,22.39
2017-02-05T09:28:40.328Z,22.49
2017-02-05T09:29:54.659Z,22.68
2017-02-05T09:31:08.988Z,22.82
2017-02-05T09:32:23.371Z,22.94
2017-02-05T09:33:37.143Z,23
2017-02-05T09:34:51.516Z,23.13
2017-02-05T09:36:05.888Z,23.22
2017-02-05T09:37:20.265Z,23.33
2017-02-05T09:38:33.972Z,23.54
2017-02-05T09:39:48.332Z,23.8
2017-02-05T09:41:02.696Z,23.93
2017-02-05T09:42:17.063Z,23.97
2017-02-05T09:43:31.412Z,24.1
2017-02-05T09:44:45.109Z,24.34
2017-02-05T09:45:59.475Z,24.58
2017-02-05T09:47:13.194Z,24.93
2017-02-05T09:48:26.945Z,25.1
2017-02-05T09:49:41.332Z,25.45
2017-02-05T09:50:55.034Z,25.77
2017-02-05T09:52:09.419Z,26.17
2017-02-05T09:53:23.804Z,26.43
2017-02-05T09:54:37.522Z,26.66
2017-02-05T09:55:51.895Z,26.8
2017-02-05T09:57:06.266Z,26.52
2017-02-05T09:58:20.646Z,26.51
2017-02-05T09:59:35.009Z,26.26
2017-02-05T10:00:49.369Z,26.47
2017-02-05T10:02:03.749Z,26.25
2017-02-05T10:03:18.132Z,25.61
2017-02-05T10:04:32.473Z,25.18
2017-02-05T10:05:46.850Z,24.83
2017-02-05T10:07:01.260Z,24.8
2017-02-05T10:08:14.984Z,24.62
2017-02-05T10:09:28.693Z,24.5
2017-02-05T10:10:42.439Z,24.37
2017-02-05T10:11:56.779Z,24.32
2017-02-05T10:13:10.503Z,24.18
2017-02-05T10:14:24.889Z,24.27
2017-02-05T10:15:39.245Z,24.31
2017-02-05T10:16:53.588Z,24.46
2017-02-05T10:18:07.995Z,24.57
2017-02-05T10:19:21.067Z,24.58
2017-02-05T10:20:34.134Z,24.91
2017-02-05T10:21:48.545Z,25.42
2017-02-05T10:23:02.953Z,25.7
2017-02-05T10:24:17.299Z,25.73
2017-02-05T10:25:31.404Z,25.58
2017-02-05T10:26:45.802Z,25.4
2017-02-05T10:28:00.156Z,25.5
2017-02-05T10:29:13.879Z,25.33
2017-02-05T10:30:27.616Z,25.38
2017-02-05T10:31:42.008Z,25.43
2017-02-05T10:32:56.360Z,25.61
2017-02-05T10:34:10.913Z,25.33
2017-02-05T10:35:25.305Z,25.17
2017-02-05T10:36:39.713Z,25.15
2017-02-05T10:37:54.075Z,25.15
2017-02-05T10:39:08.442Z,25.33
2017-02-05T10:40:22.186Z,25.38
2017-02-05T10:41:36.574Z,25.85
2017-02-05T10:42:50.348Z,26.29
2017-02-05T10:44:04.704Z,26.65
2017-02-05T10:45:18.435Z,26.5
2017-02-05T10:46:33.012Z,26.36
2017-02-05T10:47:47.417Z,26.4
2017-02-05T10:49:01.802Z,26.4
2017-02-05T10:50:16.206Z,26.43
2017-02-05T10:51:30.624Z,26.57
2017-02-05T10:52:44.996Z,26.77
2017-02-05T10:53:58.715Z,27.02
2017-02-05T10:55:13.107Z,26.89
2017-02-05T10:56:27.493Z,27.1
2017-02-05T10:57:41.877Z,26.82
2017-02-05T10:58:55.618Z,26.62
2017-02-05T11:00:09.370Z,26.54
2017-02-05T11:01:23.748Z,26.52
2017-02-05T11:02:37.496Z,26.7
2017-02-05T11:03:51.856Z,27.09
2017-02-05T11:05:06.191Z,26.75
2017-02-05T11:06:20.582Z,26.52
2017-02-05T11:07:34.321Z,26.44
2017-02-05T11:08:48.658Z,26.5
2017-02-05T11:10:03.070Z,26.47
2017-02-05T11:11:17.443Z,26.29
2017-02-05T11:12:31.850Z,26.29
2017-02-05T11:13:46.264Z,26.44
2017-02-05T11:15:00.044Z,26.5
2017-02-05T11:16:13.773Z,26.55
2017-02-05T11:17:28.193Z,26.63
2017-02-05T11:18:42.563Z,26.23
2017-02-05T11:19:56.277Z,26.12
2017-02-05T11:21:10.667Z,25.99
2017-02-05T11:22:25.049Z,26.29
2017-02-05T11:23:39.441Z,26.57
2017-02-05T11:24:53.778Z,26.67
2017-02-05T11:26:08.142Z,26.73
2017-02-05T11:27:22.523Z,26.85
2017-02-05T11:28:36.881Z,26.89
2017-02-05T11:29:51.311Z,26.81
2017-02-05T11:31:05.706Z,26.77
2017-02-05T11:32:20.062Z,26.91
2017-02-05T11:33:34.443Z,27.21
2017-02-05T11:34:48.830Z,27.65
2017-02-05T11:36:03.173Z,27.78
2017-02-05T11:37:17.504Z,27.5
2017-02-05T11:38:31.913Z,27.25
2017-02-05T11:39:44.993Z,27.14
2017-02-05T11:40:59.389Z,27.32
2017-02-05T11:42:13.773Z,27.43
2017-02-05T11:43:28.186Z,27.18
2017-02-05T11:44:42.582Z,26.55
2017-02-05T11:45:56.336Z,26.57
2017-02-05T11:47:10.701Z,26.5
2017-02-05T11:48:24.430Z,26.55
2017-02-05T11:49:38.804Z,26.7
2017-02-05T11:50:53.160Z,26.62
2017-02-05T11:52:07.511Z,26.69
2017-02-05T11:53:21.226Z,26.85
2017-02-05T11:54:34.946Z,27
2017-02-05T11:55:50.331Z,26.82
2017-02-05T11:57:04.069Z,26.63
2017-02-05T11:58:17.832Z,26.51
2017-02-05T11:59:32.192Z,26.65
2017-02-05T12:00:46.577Z,26.55
2017-02-05T12:02:00.948Z,26.6
2017-02-05T12:03:14.691Z,26.73
2017-02-05T12:04:28.418Z,26.62
2017-02-05T12:05:42.173Z,26.47
2017-02-05T12:06:55.900Z,26.57
2017-02-05T12:08:09.659Z,26.62
2017-02-05T12:09:24.048Z,26.92
2017-02-05T12:10:38.405Z,27.25
2017-02-05T12:11:52.783Z,27.36
2017-02-05T12:13:07.171Z,27.66
2017-02-05T12:14:21.583Z,27.88
2017-02-05T12:15:35.298Z,27.82
2017-02-05T12:16:49.685Z,27.5
2017-02-05T12:18:04.034Z,27.29
2017-02-05T12:19:18.408Z,27.09
2017-02-05T12:20:32.793Z,27.09
2017-02-05T12:21:47.215Z,26.94
2017-02-05T12:23:00.974Z,27.12
2017-02-05T12:24:15.316Z,27.21
2017-02-05T12:25:29.692Z,27.25
2017-02-05T12:26:44.085Z,27.36
2017-02-05T12:27:58.469Z,27.69
2017-02-05T12:29:12.230Z,27.75
2017-02-05T12:30:26.614Z,27.44
2017-02-05T12:31:40.364Z,27.39
2017-02-05T12:32:54.739Z,27.74
2017-02-05T12:34:09.134Z,27.92
2017-02-05T12:35:23.496Z,28.22
2017-02-05T12:36:37.236Z,28.49
2017-02-05T12:37:51.607Z,28.37
2017-02-05T12:39:05.983Z,28.76
2017-02-05T12:40:20.329Z,29.09
2017-02-05T12:41:34.686Z,29.14
2017-02-05T12:42:49.061Z,29.12
2017-02-05T12:44:02.797Z,28.71
2017-02-05T12:45:17.194Z,27.99
2017-02-05T12:46:31.577Z,27.57
2017-02-05T12:47:45.973Z,27.66
2017-02-05T12:49:00.368Z,27.93
2017-02-05T12:50:13.446Z,28.18
2017-02-05T12:51:27.867Z,28.04
2017-02-05T12:52:42.223Z,27.59
2017-02-05T12:53:56.583Z,27.21
2017-02-05T12:55:10.307Z,27.14
2017-02-05T12:56:24.693Z,26.91
2017-02-05T12:57:38.407Z,26.89
2017-02-05T12:58:52.760Z,26.89
2017-02-05T13:00:07.170Z,26.77
2017-02-05T13:01:21.506Z,26.89
2017-02-05T13:02:35.863Z,27.24
2017-02-05T13:03:50.296Z,27.43
2017-02-05T13:05:04.694Z,27.67
2017-02-05T13:06:19.141Z,28.14
2017-02-05T13:07:33.508Z,28.37
2017-02-05T13:08:47.856Z,28.22
2017-02-05T13:10:01.607Z,28.14
2017-02-05T13:11:15.996Z,27.93
2017-02-05T13:12:30.387Z,27.66
2017-02-05T13:13:44.805Z,27.63
2017-02-05T13:14:59.169Z,27.93
2017-02-05T13:16:13.592Z,27.51
2017-02-05T13:17:28.014Z,27.84
2017-02-05T13:18:41.776Z,28.04
2017-02-05T13:19:54.871Z,27.87
2017-02-05T13:21:09.260Z,27.81
2017-02-05T13:22:23.659Z,27.6
2017-02-05T13:23:37.422Z,27.32
2017-02-05T13:24:56.256Z,27.29
2017-02-05T13:26:10.598Z,27.25
2017-02-05T13:27:24.285Z,27.41
2017-02-05T13:28:38.006Z,27.4
2017-02-05T13:29:52.371Z,27.46
2017-02-05T13:31:06.739Z,27.7
2017-02-05T13:32:21.122Z,28.25
2017-02-05T13:33:35.498Z,28.98
2017-02-05T13:34:49.245Z,29.21
2017-02-05T13:36:03.604Z,29.19
2017-02-05T13:37:17.320Z,28.96
2017-02-05T13:38:31.664Z,28.64
2017-02-05T13:39:45.992Z,28.31
2017-02-05T13:41:00.424Z,27.97
2017-02-05T13:42:14.853Z,27.87
2017-02-05T13:43:28.586Z,27.96
2017-02-05T13:44:42.975Z,27.96
2017-02-05T13:45:57.394Z,28.04
2017-02-05T13:47:11.775Z,28.17
2017-02-05T13:48:26.217Z,28.39
2017-02-05T13:49:40.607Z,28.55
2017-02-05T13:50:54.960Z,28.71
2017-02-05T13:52:08.673Z,28.61
2017-02-05T13:53:23.004Z,28.27
2017-02-05T13:54:37.410Z,28.55
2017-02-05T13:55:51.141Z,29.02
2017-02-05T13:57:05.518Z,29.76
2017-02-05T13:58:19.888Z,30.2
2017-02-05T13:59:34.261Z,30.43
2017-02-05T14:00:48.601Z,30.76
2017-02-05T14:02:02.975Z,30.92
2017-02-05T14:03:17.359Z,31.19
2017-02-05T14:04:31.128Z,31.51
2017-02-05T14:05:44.870Z,30.55
2017-02-05T14:06:59.244Z,30.72
2017-02-05T14:08:13.647Z,30.37
2017-02-05T14:09:27.999Z,29.89
2017-02-05T14:10:42.406Z,29.78
2017-02-05T14:11:56.859Z,29.79
2017-02-05T14:13:10.625Z,29.98
2017-02-05T14:14:24.969Z,29.67
2017-02-05T14:15:39.336Z,29.57
2017-02-05T14:16:53.699Z,29.71
2017-02-05T14:18:08.069Z,29.8
2017-02-05T14:19:21.149Z,29.79
2017-02-05T14:20:35.538Z,29.64
2017-02-05T14:21:49.937Z,29.43
2017-02-05T14:23:04.311Z,29.33
2017-02-05T14:24:18.060Z,29.16
2017-02-05T14:25:32.461Z,29.28
2017-02-05T14:26:46.842Z,29.52
2017-02-05T14:28:01.216Z,30.17
2017-02-05T14:29:14.967Z,30.76
2017-02-05T14:30:29.348Z,31.26
2017-02-05T14:31:43.819Z,30.97
2017-02-05T14:32:57.571Z,30.43
2017-02-05T14:34:11.949Z,30.31
2017-02-05T14:35:26.348Z,30.01
2017-02-05T14:36:40.094Z,29.86
2017-02-05T14:37:54.505Z,29.16
2017-02-05T14:39:08.880Z,29.15
2017-02-05T14:40:23.302Z,29.46
2017-02-05T14:41:37.678Z,29.61
2017-02-05T14:42:52.048Z,29.46
2017-02-05T14:44:06.431Z,29.28
2017-02-05T14:45:20.822Z,29.18
2017-02-05T14:46:35.183Z,28.83
2017-02-05T14:47:48.931Z,28.76
2017-02-05T14:49:02.645Z,28.83
2017-02-05T14:50:17.052Z,29.15
2017-02-05T14:51:31.439Z,29.31
2017-02-05T14:52:45.832Z,29.34
2017-02-05T14:54:00.238Z,29.58
2017-02-05T14:55:14.619Z,29.7
2017-02-05T14:56:28.942Z,29.79
2017-02-05T14:57:43.336Z,29.68
2017-02-05T14:58:57.692Z,30.01
2017-02-05T15:00:10.818Z,30.04
2017-02-05T15:01:25.289Z,29.55
2017-02-05T15:02:39.716Z,29.12
2017-02-05T15:03:54.136Z,28.85
2017-02-05T15:05:08.506Z,28.56
2017-02-05T15:06:22.918Z,28.64
2017-02-05T15:07:37.316Z,29.08
2017-02-05T15:08:51.707Z,29.6
2017-02-05T15:10:06.080Z,29.76
2017-02-05T15:11:20.462Z,29.53
2017-02-05T15:12:34.819Z,29.06
2017-02-05T15:13:49.199Z,28.66
2017-02-05T15:15:02.950Z,28.27
2017-02-05T15:16:17.300Z,28.18
2017-02-05T15:17:31.673Z,28.14
2017-02-05T15:18:46.054Z,28.51
2017-02-05T15:20:00.421Z,28.95
2017-02-05T15:21:14.200Z,29.34
2017-02-05T15:22:28.601Z,30
2017-02-05T15:23:42.965Z,30.51
2017-02-05T15:24:57.352Z,31.09
2017-02-05T15:26:11.104Z,31.69
2017-02-05T15:27:25.522Z,31.93
2017-02-05T15:28:39.920Z,32.19
2017-02-05T15:29:54.331Z,31.5
2017-02-05T15:31:08.721Z,30.91
2017-02-05T15:32:22.489Z,30.8
2017-02-05T15:33:36.876Z,31.14
2017-02-05T15:34:51.279Z,30.94
2017-02-05T15:36:05.630Z,30.35
2017-02-05T15:37:20.023Z,29.76
2017-02-05T15:38:34.436Z,29.37
2017-02-05T15:39:48.791Z,29.21
2017-02-05T15:41:03.170Z,29.12
2017-02-05T15:42:17.512Z,29.28
2017-02-05T15:43:31.245Z,29.64
2017-02-05T15:44:45.022Z,29.89
2017-02-05T15:45:59.411Z,29.61
2017-02-05T15:47:13.808Z,29.37
2017-02-05T15:48:28.174Z,29.43
2017-02-05T15:49:42.543Z,29.7
2017-02-05T15:50:56.318Z,30.26
2017-02-05T15:52:10.766Z,30.98
2017-02-05T15:53:25.158Z,31.21
2017-02-05T15:54:39.549Z,30.82
2017-02-05T15:55:54.034Z,30.79
2017-02-05T15:57:08.450Z,30.55
2017-02-05T15:58:22.880Z,30.61